sensor_id;sensor_type;location;lat;lon;timestamp;P1;durP1;ratioP1;P2;durP2;ratioP2
22973;SDS011;11653;50.848;4.584;2023-04-06T00:01:41;28.37;;;16.53;;
22973;SDS011;11653;50.848;4.584;2023-04-06T00:04:06;34.20;;;16.73;;
22973;SDS011;11653;50.848;4.584;2023-04-06T00:06:32;32.97;;;18.00;;
22973;SDS011;11653;50.848;4.584;2023-04-06T00:08:58;34.53;;;18.13;;
22973;SDS011;11653;50.848;4.584;2023-04-06T00:11:24;37.23;;;17.93;;
22973;SDS011;11653;50.848;4.584;2023-04-06T00:13:50;32.33;;;17.90;;
22973;SDS011;11653;50.848;4.584;2023-04-06T00:16:16;30.33;;;16.60;;
22973;SDS011;11653;50.848;4.584;2023-04-06T00:18:42;33.97;;;17.73;;
22973;SDS011;11653;50.848;4.584;2023-04-06T00:21:08;31.67;;;17.30;;
22973;SDS011;11653;50.848;4.584;2023-04-06T00:23:36;31.27;;;16.37;;
22973;SDS011;11653;50.848;4.584;2023-04-06T00:26:02;31.13;;;16.87;;
22973;SDS011;11653;50.848;4.584;2023-04-06T00:28:27;28.37;;;16.67;;
22973;SDS011;11653;50.848;4.584;2023-04-06T00:30:54;34.07;;;17.83;;
22973;SDS011;11653;50.848;4.584;2023-04-06T00:33:20;32.07;;;16.60;;
22973;SDS011;11653;50.848;4.584;2023-04-06T00:35:47;29.97;;;16.97;;
22973;SDS011;11653;50.848;4.584;2023-04-06T00:38:14;31.57;;;18.03;;
22973;SDS011;11653;50.848;4.584;2023-04-06T00:40:40;31.63;;;16.77;;
22973;SDS011;11653;50.848;4.584;2023-04-06T00:43:06;28.17;;;15.87;;
22973;SDS011;11653;50.848;4.584;2023-04-06T00:45:33;28.13;;;16.43;;
22973;SDS011;11653;50.848;4.584;2023-04-06T00:47:59;31.03;;;15.83;;
22973;SDS011;11653;50.848;4.584;2023-04-06T00:50:26;27.20;;;16.10;;
22973;SDS011;11653;50.848;4.584;2023-04-06T00:52:52;30.40;;;16.33;;
22973;SDS011;11653;50.848;4.584;2023-04-06T00:55:18;28.60;;;16.07;;
22973;SDS011;11653;50.848;4.584;2023-04-06T00:57:44;29.77;;;15.60;;
22973;SDS011;11653;50.848;4.584;2023-04-06T01:00:10;29.60;;;16.50;;
22973;SDS011;11653;50.848;4.584;2023-04-06T01:02:37;30.03;;;15.77;;
22973;SDS011;11653;50.848;4.584;2023-04-06T01:05:03;28.97;;;15.07;;
22973;SDS011;11653;50.848;4.584;2023-04-06T01:07:29;29.20;;;15.77;;
22973;SDS011;11653;50.848;4.584;2023-04-06T01:09:55;28.40;;;15.77;;
22973;SDS011;11653;50.848;4.584;2023-04-06T01:12:21;28.33;;;16.10;;
22973;SDS011;11653;50.848;4.584;2023-04-06T01:14:46;27.40;;;15.63;;
22973;SDS011;11653;50.848;4.584;2023-04-06T01:17:13;26.03;;;14.83;;
22973;SDS011;11653;50.848;4.584;2023-04-06T01:19:38;25.33;;;15.47;;
22973;SDS011;11653;50.848;4.584;2023-04-06T01:22:05;29.13;;;15.43;;
22973;SDS011;11653;50.848;4.584;2023-04-06T01:24:32;28.80;;;15.73;;
22973;SDS011;11653;50.848;4.584;2023-04-06T01:26:58;29.57;;;16.27;;
22973;SDS011;11653;50.848;4.584;2023-04-06T01:29:23;28.73;;;16.13;;
22973;SDS011;11653;50.848;4.584;2023-04-06T01:31:49;27.40;;;15.80;;
22973;SDS011;11653;50.848;4.584;2023-04-06T01:34:15;24.80;;;15.80;;
22973;SDS011;11653;50.848;4.584;2023-04-06T01:36:41;29.00;;;15.17;;
22973;SDS011;11653;50.848;4.584;2023-04-06T01:39:07;29.07;;;15.70;;
22973;SDS011;11653;50.848;4.584;2023-04-06T01:41:33;28.57;;;15.60;;
22973;SDS011;11653;50.848;4.584;2023-04-06T01:43:59;32.50;;;15.50;;
22973;SDS011;11653;50.848;4.584;2023-04-06T01:46:25;29.80;;;15.50;;
22973;SDS011;11653;50.848;4.584;2023-04-06T01:48:51;25.47;;;14.73;;
22973;SDS011;11653;50.848;4.584;2023-04-06T01:51:17;25.90;;;14.93;;
22973;SDS011;11653;50.848;4.584;2023-04-06T01:53:42;29.47;;;14.93;;
22973;SDS011;11653;50.848;4.584;2023-04-06T01:56:08;27.23;;;15.10;;
22973;SDS011;11653;50.848;4.584;2023-04-06T01:58:34;30.17;;;15.13;;
22973;SDS011;11653;50.848;4.584;2023-04-06T02:01:00;26.07;;;15.00;;
22973;SDS011;11653;50.848;4.584;2023-04-06T02:03:25;27.27;;;14.50;;
22973;SDS011;11653;50.848;4.584;2023-04-06T02:05:51;24.87;;;14.03;;
22973;SDS011;11653;50.848;4.584;2023-04-06T02:08:17;25.70;;;14.83;;
22973;SDS011;11653;50.848;4.584;2023-04-06T02:10:42;28.43;;;15.57;;
22973;SDS011;11653;50.848;4.584;2023-04-06T02:13:08;27.23;;;14.53;;
22973;SDS011;11653;50.848;4.584;2023-04-06T02:15:34;29.30;;;15.40;;
22973;SDS011;11653;50.848;4.584;2023-04-06T02:17:59;26.63;;;14.37;;
22973;SDS011;11653;50.848;4.584;2023-04-06T02:20:25;26.00;;;14.40;;
22973;SDS011;11653;50.848;4.584;2023-04-06T02:22:51;27.50;;;14.40;;
22973;SDS011;11653;50.848;4.584;2023-04-06T02:25:17;22.27;;;13.77;;
22973;SDS011;11653;50.848;4.584;2023-04-06T02:27:42;24.63;;;13.93;;
22973;SDS011;11653;50.848;4.584;2023-04-06T02:30:08;23.20;;;13.67;;
22973;SDS011;11653;50.848;4.584;2023-04-06T02:32:34;27.93;;;14.10;;
22973;SDS011;11653;50.848;4.584;2023-04-06T02:35:00;28.17;;;14.47;;
22973;SDS011;11653;50.848;4.584;2023-04-06T02:37:26;28.27;;;14.10;;
22973;SDS011;11653;50.848;4.584;2023-04-06T02:39:51;23.50;;;13.27;;
22973;SDS011;11653;50.848;4.584;2023-04-06T02:42:17;22.37;;;12.70;;
22973;SDS011;11653;50.848;4.584;2023-04-06T02:44:43;27.53;;;14.93;;
22973;SDS011;11653;50.848;4.584;2023-04-06T02:47:09;24.57;;;13.43;;
22973;SDS011;11653;50.848;4.584;2023-04-06T02:49:35;24.03;;;13.53;;
22973;SDS011;11653;50.848;4.584;2023-04-06T02:52:01;24.13;;;13.67;;
22973;SDS011;11653;50.848;4.584;2023-04-06T02:54:28;28.73;;;14.33;;
22973;SDS011;11653;50.848;4.584;2023-04-06T02:56:53;25.30;;;14.23;;
22973;SDS011;11653;50.848;4.584;2023-04-06T02:59:19;27.63;;;14.57;;
22973;SDS011;11653;50.848;4.584;2023-04-06T03:01:45;25.37;;;12.87;;
22973;SDS011;11653;50.848;4.584;2023-04-06T03:04:11;25.27;;;14.47;;
22973;SDS011;11653;50.848;4.584;2023-04-06T03:06:37;26.23;;;13.10;;
22973;SDS011;11653;50.848;4.584;2023-04-06T03:09:02;26.27;;;14.63;;
22973;SDS011;11653;50.848;4.584;2023-04-06T03:11:28;25.83;;;14.20;;
22973;SDS011;11653;50.848;4.584;2023-04-06T03:13:54;24.90;;;14.03;;
22973;SDS011;11653;50.848;4.584;2023-04-06T03:16:20;24.97;;;14.37;;
22973;SDS011;11653;50.848;4.584;2023-04-06T03:18:45;26.30;;;14.50;;
22973;SDS011;11653;50.848;4.584;2023-04-06T03:21:12;24.73;;;13.80;;
22973;SDS011;11653;50.848;4.584;2023-04-06T03:23:41;24.50;;;13.57;;
22973;SDS011;11653;50.848;4.584;2023-04-06T03:26:07;24.07;;;12.97;;
22973;SDS011;11653;50.848;4.584;2023-04-06T03:28:33;24.13;;;13.73;;
22973;SDS011;11653;50.848;4.584;2023-04-06T03:30:59;25.27;;;14.70;;
22973;SDS011;11653;50.848;4.584;2023-04-06T03:33:25;25.87;;;14.73;;
22973;SDS011;11653;50.848;4.584;2023-04-06T03:35:53;27.37;;;14.60;;
22973;SDS011;11653;50.848;4.584;2023-04-06T03:38:19;22.90;;;13.17;;
22973;SDS011;11653;50.848;4.584;2023-04-06T03:40:45;25.50;;;13.70;;
22973;SDS011;11653;50.848;4.584;2023-04-06T03:43:11;26.07;;;14.00;;
22973;SDS011;11653;50.848;4.584;2023-04-06T03:45:37;25.13;;;14.27;;
22973;SDS011;11653;50.848;4.584;2023-04-06T03:48:02;24.23;;;13.77;;
22973;SDS011;11653;50.848;4.584;2023-04-06T03:50:28;25.10;;;13.53;;
22973;SDS011;11653;50.848;4.584;2023-04-06T03:52:54;32.80;;;14.83;;
22973;SDS011;11653;50.848;4.584;2023-04-06T03:55:20;23.17;;;13.23;;
22973;SDS011;11653;50.848;4.584;2023-04-06T03:57:46;27.20;;;14.17;;
22973;SDS011;11653;50.848;4.584;2023-04-06T04:00:12;23.77;;;13.93;;
22973;SDS011;11653;50.848;4.584;2023-04-06T04:02:38;28.90;;;15.03;;
22973;SDS011;11653;50.848;4.584;2023-04-06T04:05:04;30.90;;;14.20;;
22973;SDS011;11653;50.848;4.584;2023-04-06T04:07:30;28.87;;;14.67;;
22973;SDS011;11653;50.848;4.584;2023-04-06T04:09:55;31.67;;;14.93;;
22973;SDS011;11653;50.848;4.584;2023-04-06T04:12:21;28.40;;;14.30;;
22973;SDS011;11653;50.848;4.584;2023-04-06T04:14:47;24.60;;;14.10;;
22973;SDS011;11653;50.848;4.584;2023-04-06T04:17:12;28.40;;;14.10;;
22973;SDS011;11653;50.848;4.584;2023-04-06T04:19:38;28.57;;;14.70;;
22973;SDS011;11653;50.848;4.584;2023-04-06T04:22:04;27.20;;;14.33;;
22973;SDS011;11653;50.848;4.584;2023-04-06T04:24:30;26.53;;;14.37;;
22973;SDS011;11653;50.848;4.584;2023-04-06T04:26:55;23.83;;;14.33;;
22973;SDS011;11653;50.848;4.584;2023-04-06T04:29:21;24.53;;;15.20;;
22973;SDS011;11653;50.848;4.584;2023-04-06T04:31:48;23.57;;;14.17;;
22973;SDS011;11653;50.848;4.584;2023-04-06T04:34:14;26.83;;;13.47;;
22973;SDS011;11653;50.848;4.584;2023-04-06T04:36:40;26.90;;;14.43;;
22973;SDS011;11653;50.848;4.584;2023-04-06T04:39:07;27.23;;;13.73;;
22973;SDS011;11653;50.848;4.584;2023-04-06T04:41:33;26.57;;;14.70;;
22973;SDS011;11653;50.848;4.584;2023-04-06T04:43:58;26.23;;;13.83;;
22973;SDS011;11653;50.848;4.584;2023-04-06T04:46:24;24.50;;;14.10;;
22973;SDS011;11653;50.848;4.584;2023-04-06T04:48:50;27.03;;;14.37;;
22973;SDS011;11653;50.848;4.584;2023-04-06T04:51:15;25.03;;;14.17;;
22973;SDS011;11653;50.848;4.584;2023-04-06T04:53:41;25.53;;;14.63;;
22973;SDS011;11653;50.848;4.584;2023-04-06T04:56:06;27.93;;;14.77;;
22973;SDS011;11653;50.848;4.584;2023-04-06T04:58:32;24.17;;;14.07;;
22973;SDS011;11653;50.848;4.584;2023-04-06T05:00:58;28.03;;;15.00;;
22973;SDS011;11653;50.848;4.584;2023-04-06T05:03:24;29.07;;;15.00;;
22973;SDS011;11653;50.848;4.584;2023-04-06T05:05:51;25.87;;;14.37;;
22973;SDS011;11653;50.848;4.584;2023-04-06T05:08:17;25.53;;;14.43;;
22973;SDS011;11653;50.848;4.584;2023-04-06T05:10:43;23.20;;;13.87;;
22973;SDS011;11653;50.848;4.584;2023-04-06T05:13:13;24.83;;;13.60;;
22973;SDS011;11653;50.848;4.584;2023-04-06T05:15:39;30.83;;;14.63;;
22973;SDS011;11653;50.848;4.584;2023-04-06T05:18:05;26.03;;;14.63;;
22973;SDS011;11653;50.848;4.584;2023-04-06T05:20:34;27.47;;;14.30;;
22973;SDS011;11653;50.848;4.584;2023-04-06T05:23:00;28.00;;;14.50;;
22973;SDS011;11653;50.848;4.584;2023-04-06T05:25:26;28.10;;;14.20;;
22973;SDS011;11653;50.848;4.584;2023-04-06T05:27:52;25.60;;;14.20;;
22973;SDS011;11653;50.848;4.584;2023-04-06T05:30:18;24.00;;;14.57;;
22973;SDS011;11653;50.848;4.584;2023-04-06T05:32:45;26.97;;;14.23;;
22973;SDS011;11653;50.848;4.584;2023-04-06T05:35:11;24.63;;;14.00;;
22973;SDS011;11653;50.848;4.584;2023-04-06T05:37:37;25.50;;;14.10;;
22973;SDS011;11653;50.848;4.584;2023-04-06T05:40:03;28.37;;;14.30;;
22973;SDS011;11653;50.848;4.584;2023-04-06T05:42:39;26.00;;;14.63;;
22973;SDS011;11653;50.848;4.584;2023-04-06T05:45:06;28.20;;;14.40;;
22973;SDS011;11653;50.848;4.584;2023-04-06T05:47:32;28.53;;;14.53;;
22973;SDS011;11653;50.848;4.584;2023-04-06T05:49:58;26.47;;;13.63;;
22973;SDS011;11653;50.848;4.584;2023-04-06T05:52:24;29.93;;;15.83;;
22973;SDS011;11653;50.848;4.584;2023-04-06T05:54:49;27.03;;;13.67;;
22973;SDS011;11653;50.848;4.584;2023-04-06T05:57:15;27.43;;;14.27;;
22973;SDS011;11653;50.848;4.584;2023-04-06T05:59:43;31.60;;;14.63;;
22973;SDS011;11653;50.848;4.584;2023-04-06T06:02:10;26.00;;;14.70;;
22973;SDS011;11653;50.848;4.584;2023-04-06T06:04:35;25.07;;;13.63;;
22973;SDS011;11653;50.848;4.584;2023-04-06T06:07:01;28.83;;;16.13;;
22973;SDS011;11653;50.848;4.584;2023-04-06T06:09:27;25.93;;;14.37;;
22973;SDS011;11653;50.848;4.584;2023-04-06T06:11:52;26.80;;;14.30;;
22973;SDS011;11653;50.848;4.584;2023-04-06T06:14:18;26.20;;;14.43;;
22973;SDS011;11653;50.848;4.584;2023-04-06T06:16:45;26.87;;;14.87;;
22973;SDS011;11653;50.848;4.584;2023-04-06T06:19:10;29.63;;;14.20;;
22973;SDS011;11653;50.848;4.584;2023-04-06T06:21:36;26.93;;;14.30;;
22973;SDS011;11653;50.848;4.584;2023-04-06T06:24:02;28.17;;;14.17;;
22973;SDS011;11653;50.848;4.584;2023-04-06T06:26:28;26.97;;;13.53;;
22973;SDS011;11653;50.848;4.584;2023-04-06T06:28:53;25.53;;;13.17;;
22973;SDS011;11653;50.848;4.584;2023-04-06T06:31:20;28.40;;;14.27;;
22973;SDS011;11653;50.848;4.584;2023-04-06T06:33:47;25.43;;;13.47;;
22973;SDS011;11653;50.848;4.584;2023-04-06T06:36:16;25.40;;;14.37;;
22973;SDS011;11653;50.848;4.584;2023-04-06T06:38:43;24.93;;;13.43;;
22973;SDS011;11653;50.848;4.584;2023-04-06T06:41:09;27.87;;;14.40;;
22973;SDS011;11653;50.848;4.584;2023-04-06T06:43:35;24.60;;;13.50;;
22973;SDS011;11653;50.848;4.584;2023-04-06T06:46:01;29.10;;;14.20;;
22973;SDS011;11653;50.848;4.584;2023-04-06T06:48:27;30.27;;;14.43;;
22973;SDS011;11653;50.848;4.584;2023-04-06T06:50:53;32.60;;;15.23;;
22973;SDS011;11653;50.848;4.584;2023-04-06T06:53:19;30.53;;;15.00;;
22973;SDS011;11653;50.848;4.584;2023-04-06T06:55:45;29.90;;;15.43;;
22973;SDS011;11653;50.848;4.584;2023-04-06T06:58:10;30.30;;;15.23;;
22973;SDS011;11653;50.848;4.584;2023-04-06T07:00:36;30.93;;;14.40;;
22973;SDS011;11653;50.848;4.584;2023-04-06T07:03:02;27.80;;;15.97;;
22973;SDS011;11653;50.848;4.584;2023-04-06T07:05:28;27.20;;;15.60;;
22973;SDS011;11653;50.848;4.584;2023-04-06T07:07:54;34.77;;;15.83;;
22973;SDS011;11653;50.848;4.584;2023-04-06T07:10:20;28.70;;;15.40;;
22973;SDS011;11653;50.848;4.584;2023-04-06T07:12:46;32.47;;;15.70;;
22973;SDS011;11653;50.848;4.584;2023-04-06T07:15:12;31.00;;;16.37;;
22973;SDS011;11653;50.848;4.584;2023-04-06T07:17:38;29.83;;;15.50;;
22973;SDS011;11653;50.848;4.584;2023-04-06T07:20:03;30.40;;;16.23;;
22973;SDS011;11653;50.848;4.584;2023-04-06T07:22:29;31.27;;;16.50;;
22973;SDS011;11653;50.848;4.584;2023-04-06T07:24:55;33.77;;;15.93;;
22973;SDS011;11653;50.848;4.584;2023-04-06T07:27:21;30.60;;;15.87;;
22973;SDS011;11653;50.848;4.584;2023-04-06T07:29:47;31.13;;;16.07;;
22973;SDS011;11653;50.848;4.584;2023-04-06T07:32:12;29.10;;;15.57;;
22973;SDS011;11653;50.848;4.584;2023-04-06T07:34:38;28.43;;;15.73;;
22973;SDS011;11653;50.848;4.584;2023-04-06T07:37:04;33.97;;;16.20;;
22973;SDS011;11653;50.848;4.584;2023-04-06T07:39:30;33.10;;;16.33;;
22973;SDS011;11653;50.848;4.584;2023-04-06T07:41:55;30.37;;;15.97;;
22973;SDS011;11653;50.848;4.584;2023-04-06T07:44:21;28.97;;;16.97;;
22973;SDS011;11653;50.848;4.584;2023-04-06T07:46:47;31.50;;;17.27;;
22973;SDS011;11653;50.848;4.584;2023-04-06T07:49:13;32.67;;;16.90;;
22973;SDS011;11653;50.848;4.584;2023-04-06T07:51:39;28.23;;;15.63;;
22973;SDS011;11653;50.848;4.584;2023-04-06T07:54:05;32.73;;;15.43;;
22973;SDS011;11653;50.848;4.584;2023-04-06T07:56:31;29.27;;;15.53;;
22973;SDS011;11653;50.848;4.584;2023-04-06T07:58:57;28.03;;;15.60;;
22973;SDS011;11653;50.848;4.584;2023-04-06T08:01:23;31.40;;;16.47;;
22973;SDS011;11653;50.848;4.584;2023-04-06T08:03:50;29.47;;;15.93;;
22973;SDS011;11653;50.848;4.584;2023-04-06T08:06:16;27.43;;;15.47;;
22973;SDS011;11653;50.848;4.584;2023-04-06T08:08:42;30.43;;;15.97;;
22973;SDS011;11653;50.848;4.584;2023-04-06T08:11:08;25.43;;;15.13;;
22973;SDS011;11653;50.848;4.584;2023-04-06T08:13:34;28.97;;;14.70;;
22973;SDS011;11653;50.848;4.584;2023-04-06T08:16:00;28.30;;;15.83;;
22973;SDS011;11653;50.848;4.584;2023-04-06T08:18:29;27.37;;;14.53;;
22973;SDS011;11653;50.848;4.584;2023-04-06T08:20:55;26.73;;;15.13;;
22973;SDS011;11653;50.848;4.584;2023-04-06T08:23:21;27.97;;;15.30;;
22973;SDS011;11653;50.848;4.584;2023-04-06T08:25:47;26.20;;;14.60;;
22973;SDS011;11653;50.848;4.584;2023-04-06T08:28:13;30.97;;;15.00;;
22973;SDS011;11653;50.848;4.584;2023-04-06T08:30:40;25.87;;;14.23;;
22973;SDS011;11653;50.848;4.584;2023-04-06T08:33:07;26.87;;;14.27;;
22973;SDS011;11653;50.848;4.584;2023-04-06T08:35:33;25.37;;;12.93;;
22973;SDS011;11653;50.848;4.584;2023-04-06T08:37:59;24.73;;;12.93;;
22973;SDS011;11653;50.848;4.584;2023-04-06T08:40:25;20.77;;;13.53;;
22973;SDS011;11653;50.848;4.584;2023-04-06T08:42:52;24.07;;;13.00;;
22973;SDS011;11653;50.848;4.584;2023-04-06T08:45:20;21.30;;;12.00;;
22973;SDS011;11653;50.848;4.584;2023-04-06T08:47:48;19.53;;;13.13;;
22973;SDS011;11653;50.848;4.584;2023-04-06T08:50:15;22.13;;;12.53;;
22973;SDS011;11653;50.848;4.584;2023-04-06T08:52:43;23.73;;;13.03;;
22973;SDS011;11653;50.848;4.584;2023-04-06T08:55:11;20.43;;;12.23;;
22973;SDS011;11653;50.848;4.584;2023-04-06T08:57:37;19.83;;;11.97;;
22973;SDS011;11653;50.848;4.584;2023-04-06T09:00:03;22.40;;;12.17;;
22973;SDS011;11653;50.848;4.584;2023-04-06T09:02:31;19.27;;;11.50;;
22973;SDS011;11653;50.848;4.584;2023-04-06T09:04:57;23.00;;;12.00;;
22973;SDS011;11653;50.848;4.584;2023-04-06T09:07:24;20.70;;;11.50;;
22973;SDS011;11653;50.848;4.584;2023-04-06T09:09:49;22.63;;;11.83;;
22973;SDS011;11653;50.848;4.584;2023-04-06T09:12:30;19.20;;;12.03;;
22973;SDS011;11653;50.848;4.584;2023-04-06T09:14:57;17.60;;;11.50;;
22973;SDS011;11653;50.848;4.584;2023-04-06T09:17:27;21.27;;;11.70;;
22973;SDS011;11653;50.848;4.584;2023-04-06T09:19:55;22.13;;;13.03;;
22973;SDS011;11653;50.848;4.584;2023-04-06T09:22:21;20.10;;;11.87;;
22973;SDS011;11653;50.848;4.584;2023-04-06T09:27:17;21.40;;;12.83;;
22973;SDS011;11653;50.848;4.584;2023-04-06T09:29:43;23.10;;;13.23;;
22973;SDS011;11653;50.848;4.584;2023-04-06T09:32:10;21.70;;;12.40;;
22973;SDS011;11653;50.848;4.584;2023-04-06T09:34:40;22.33;;;12.77;;
22973;SDS011;11653;50.848;4.584;2023-04-06T09:37:39;23.03;;;14.10;;
22973;SDS011;11653;50.848;4.584;2023-04-06T09:40:04;23.27;;;13.43;;
22973;SDS011;11653;50.848;4.584;2023-04-06T09:42:32;20.87;;;13.10;;
22973;SDS011;11653;50.848;4.584;2023-04-06T09:44:58;22.57;;;13.20;;
22973;SDS011;11653;50.848;4.584;2023-04-06T09:47:23;22.87;;;13.87;;
22973;SDS011;11653;50.848;4.584;2023-04-06T09:49:53;23.30;;;11.67;;
22973;SDS011;11653;50.848;4.584;2023-04-06T09:52:26;22.90;;;13.10;;
22973;SDS011;11653;50.848;4.584;2023-04-06T09:54:56;19.90;;;12.20;;
22973;SDS011;11653;50.848;4.584;2023-04-06T09:57:29;20.80;;;12.77;;
22973;SDS011;11653;50.848;4.584;2023-04-06T10:00:04;21.43;;;12.20;;
22973;SDS011;11653;50.848;4.584;2023-04-06T10:03:23;21.40;;;11.83;;
22973;SDS011;11653;50.848;4.584;2023-04-06T10:07:54;21.60;;;11.63;;
22973;SDS011;11653;50.848;4.584;2023-04-06T10:10:24;21.23;;;11.57;;
22973;SDS011;11653;50.848;4.584;2023-04-06T10:12:50;18.90;;;11.03;;
22973;SDS011;11653;50.848;4.584;2023-04-06T10:15:16;21.63;;;11.83;;
22973;SDS011;11653;50.848;4.584;2023-04-06T10:17:43;19.20;;;9.63;;
22973;SDS011;11653;50.848;4.584;2023-04-06T10:25:51;16.33;;;10.10;;
22973;SDS011;11653;50.848;4.584;2023-04-06T10:28:18;18.33;;;11.10;;
22973;SDS011;11653;50.848;4.584;2023-04-06T10:30:44;18.80;;;10.37;;
22973;SDS011;11653;50.848;4.584;2023-04-06T10:35:44;18.43;;;10.60;;
22973;SDS011;11653;50.848;4.584;2023-04-06T10:38:10;20.07;;;11.73;;
22973;SDS011;11653;50.848;4.584;2023-04-06T10:40:38;20.90;;;11.37;;
22973;SDS011;11653;50.848;4.584;2023-04-06T10:43:09;19.60;;;11.47;;
22973;SDS011;11653;50.848;4.584;2023-04-06T10:45:45;22.70;;;12.17;;
22973;SDS011;11653;50.848;4.584;2023-04-06T10:48:20;22.40;;;11.20;;
22973;SDS011;11653;50.848;4.584;2023-04-06T10:50:47;21.40;;;11.30;;
22973;SDS011;11653;50.848;4.584;2023-04-06T10:53:24;19.57;;;10.73;;
22973;SDS011;11653;50.848;4.584;2023-04-06T10:55:51;20.40;;;12.70;;
22973;SDS011;11653;50.848;4.584;2023-04-06T10:58:18;19.70;;;9.80;;
22973;SDS011;11653;50.848;4.584;2023-04-06T11:00:47;21.20;;;11.43;;
22973;SDS011;11653;50.848;4.584;2023-04-06T11:03:14;22.90;;;12.70;;
22973;SDS011;11653;50.848;4.584;2023-04-06T11:05:44;20.93;;;11.00;;
22973;SDS011;11653;50.848;4.584;2023-04-06T11:08:21;25.47;;;13.33;;
22973;SDS011;11653;50.848;4.584;2023-04-06T11:10:51;21.33;;;11.70;;
22973;SDS011;11653;50.848;4.584;2023-04-06T11:13:16;21.60;;;11.70;;
22973;SDS011;11653;50.848;4.584;2023-04-06T11:15:42;22.17;;;10.97;;
22973;SDS011;11653;50.848;4.584;2023-04-06T11:18:08;22.67;;;11.60;;
22973;SDS011;11653;50.848;4.584;2023-04-06T11:20:34;19.10;;;12.47;;
22973;SDS011;11653;50.848;4.584;2023-04-06T11:23:00;19.13;;;11.67;;
22973;SDS011;11653;50.848;4.584;2023-04-06T11:25:26;22.40;;;13.10;;
22973;SDS011;11653;50.848;4.584;2023-04-06T11:27:52;21.03;;;12.10;;
22973;SDS011;11653;50.848;4.584;2023-04-06T11:30:18;18.83;;;10.50;;
22973;SDS011;11653;50.848;4.584;2023-04-06T11:32:45;22.23;;;12.17;;
22973;SDS011;11653;50.848;4.584;2023-04-06T11:35:21;19.17;;;11.67;;
22973;SDS011;11653;50.848;4.584;2023-04-06T11:37:48;21.43;;;12.27;;
22973;SDS011;11653;50.848;4.584;2023-04-06T11:40:15;20.67;;;12.07;;
22973;SDS011;11653;50.848;4.584;2023-04-06T11:42:51;17.67;;;10.37;;
22973;SDS011;11653;50.848;4.584;2023-04-06T11:45:18;20.10;;;11.60;;
22973;SDS011;11653;50.848;4.584;2023-04-06T11:47:44;19.07;;;12.33;;
22973;SDS011;11653;50.848;4.584;2023-04-06T11:50:13;22.30;;;13.33;;
22973;SDS011;11653;50.848;4.584;2023-04-06T11:52:39;23.03;;;12.90;;
22973;SDS011;11653;50.848;4.584;2023-04-06T11:55:10;20.67;;;12.60;;
22973;SDS011;11653;50.848;4.584;2023-04-06T11:57:43;19.73;;;12.53;;
22973;SDS011;11653;50.848;4.584;2023-04-06T12:00:10;22.23;;;12.80;;
22973;SDS011;11653;50.848;4.584;2023-04-06T12:02:37;19.10;;;12.30;;
22973;SDS011;11653;50.848;4.584;2023-04-06T12:05:04;18.67;;;11.07;;
22973;SDS011;11653;50.848;4.584;2023-04-06T12:07:30;18.97;;;11.63;;
22973;SDS011;11653;50.848;4.584;2023-04-06T12:09:58;20.17;;;11.27;;
22973;SDS011;11653;50.848;4.584;2023-04-06T12:12:24;18.10;;;10.87;;
22973;SDS011;11653;50.848;4.584;2023-04-06T12:14:50;19.53;;;12.03;;
22973;SDS011;11653;50.848;4.584;2023-04-06T12:17:16;20.60;;;11.90;;
22973;SDS011;11653;50.848;4.584;2023-04-06T12:19:43;18.17;;;11.57;;
22973;SDS011;11653;50.848;4.584;2023-04-06T12:22:08;16.03;;;10.27;;
22973;SDS011;11653;50.848;4.584;2023-04-06T12:24:34;17.33;;;10.80;;
22973;SDS011;11653;50.848;4.584;2023-04-06T12:27:00;19.60;;;11.80;;
22973;SDS011;11653;50.848;4.584;2023-04-06T12:29:26;21.17;;;12.30;;
22973;SDS011;11653;50.848;4.584;2023-04-06T12:31:52;17.93;;;11.30;;
22973;SDS011;11653;50.848;4.584;2023-04-06T12:34:18;18.67;;;11.27;;
22973;SDS011;11653;50.848;4.584;2023-04-06T12:36:43;17.47;;;11.07;;
22973;SDS011;11653;50.848;4.584;2023-04-06T12:39:09;17.03;;;10.53;;
22973;SDS011;11653;50.848;4.584;2023-04-06T12:41:36;17.77;;;11.43;;
22973;SDS011;11653;50.848;4.584;2023-04-06T12:44:02;15.70;;;11.07;;
22973;SDS011;11653;50.848;4.584;2023-04-06T12:46:28;16.27;;;11.93;;
22973;SDS011;11653;50.848;4.584;2023-04-06T12:48:57;23.40;;;13.47;;
22973;SDS011;11653;50.848;4.584;2023-04-06T12:51:24;16.53;;;10.20;;
22973;SDS011;11653;50.848;4.584;2023-04-06T12:53:52;20.03;;;12.53;;
22973;SDS011;11653;50.848;4.584;2023-04-06T12:56:18;16.73;;;12.17;;
22973;SDS011;11653;50.848;4.584;2023-04-06T12:58:47;18.67;;;11.30;;
22973;SDS011;11653;50.848;4.584;2023-04-06T13:01:15;18.60;;;12.77;;
22973;SDS011;11653;50.848;4.584;2023-04-06T13:03:41;22.90;;;13.13;;
22973;SDS011;11653;50.848;4.584;2023-04-06T13:06:07;19.00;;;13.10;;
22973;SDS011;11653;50.848;4.584;2023-04-06T13:08:34;21.37;;;13.47;;
22973;SDS011;11653;50.848;4.584;2023-04-06T13:11:01;20.90;;;13.07;;
22973;SDS011;11653;50.848;4.584;2023-04-06T13:13:27;21.57;;;12.97;;
22973;SDS011;11653;50.848;4.584;2023-04-06T13:15:55;20.90;;;13.57;;
22973;SDS011;11653;50.848;4.584;2023-04-06T13:18:32;21.20;;;13.03;;
22973;SDS011;11653;50.848;4.584;2023-04-06T13:20:59;24.20;;;13.53;;
22973;SDS011;11653;50.848;4.584;2023-04-06T13:23:24;21.50;;;13.10;;
22973;SDS011;11653;50.848;4.584;2023-04-06T13:25:57;20.17;;;13.80;;
22973;SDS011;11653;50.848;4.584;2023-04-06T13:28:28;25.93;;;14.97;;
22973;SDS011;11653;50.848;4.584;2023-04-06T13:30:54;23.20;;;15.00;;
22973;SDS011;11653;50.848;4.584;2023-04-06T13:33:20;23.77;;;13.93;;
22973;SDS011;11653;50.848;4.584;2023-04-06T13:35:46;25.47;;;14.57;;
22973;SDS011;11653;50.848;4.584;2023-04-06T13:38:12;28.07;;;15.43;;
22973;SDS011;11653;50.848;4.584;2023-04-06T13:40:38;25.87;;;14.93;;
22973;SDS011;11653;50.848;4.584;2023-04-06T13:43:05;26.80;;;14.40;;
22973;SDS011;11653;50.848;4.584;2023-04-06T13:45:31;23.93;;;15.33;;
22973;SDS011;11653;50.848;4.584;2023-04-06T13:47:57;25.47;;;15.17;;
22973;SDS011;11653;50.848;4.584;2023-04-06T13:50:25;24.93;;;14.90;;
22973;SDS011;11653;50.848;4.584;2023-04-06T13:52:51;29.00;;;15.87;;
22973;SDS011;11653;50.848;4.584;2023-04-06T13:55:17;27.93;;;14.37;;
22973;SDS011;11653;50.848;4.584;2023-04-06T13:57:43;25.07;;;15.67;;
22973;SDS011;11653;50.848;4.584;2023-04-06T14:00:08;26.87;;;15.17;;
22973;SDS011;11653;50.848;4.584;2023-04-06T14:02:36;24.13;;;15.47;;
22973;SDS011;11653;50.848;4.584;2023-04-06T14:05:02;22.77;;;14.43;;
22973;SDS011;11653;50.848;4.584;2023-04-06T14:07:28;23.40;;;14.77;;
22973;SDS011;11653;50.848;4.584;2023-04-06T14:09:54;27.10;;;14.90;;
22973;SDS011;11653;50.848;4.584;2023-04-06T14:12:19;22.50;;;13.53;;
22973;SDS011;11653;50.848;4.584;2023-04-06T14:14:45;25.13;;;16.27;;
22973;SDS011;11653;50.848;4.584;2023-04-06T14:17:11;30.33;;;17.97;;
22973;SDS011;11653;50.848;4.584;2023-04-06T14:19:37;28.03;;;14.27;;
22973;SDS011;11653;50.848;4.584;2023-04-06T14:22:03;26.30;;;14.80;;
22973;SDS011;11653;50.848;4.584;2023-04-06T14:24:29;27.73;;;15.00;;
22973;SDS011;11653;50.848;4.584;2023-04-06T14:26:55;23.73;;;14.60;;
22973;SDS011;11653;50.848;4.584;2023-04-06T14:29:21;25.23;;;15.40;;
22973;SDS011;11653;50.848;4.584;2023-04-06T14:31:47;23.93;;;15.77;;